sensor_id;sensor_type;location;lat;lon;timestamp;P1;durP1;ratioP1;P2;durP2;ratioP2
31531;SDS011;23787;52.180;5.288;2022-12-07T00:00:26;5.50;;;5.10;;
31531;SDS011;23787;52.180;5.288;2022-12-07T00:15:26;5.80;;;5.40;;
31531;SDS011;23787;52.180;5.288;2022-12-07T00:20:26;4.90;;;4.50;;
31531;SDS011;23787;52.180;5.288;2022-12-07T00:30:26;4.90;;;4.50;;
31531;SDS011;23787;52.180;5.288;2022-12-07T00:35:26;5.00;;;4.60;;
31531;SDS011;23787;52.180;5.288;2022-12-07T00:45:26;5.00;;;4.60;;
31531;SDS011;23787;52.180;5.288;2022-12-07T00:55:26;4.40;;;4.10;;
31531;SDS011;23787;52.180;5.288;2022-12-07T01:15:26;4.40;;;4.10;;
31531;SDS011;23787;52.180;5.288;2022-12-07T01:20:26;4.20;;;3.90;;
31531;SDS011;23787;52.180;5.288;2022-12-07T01:25:26;4.20;;;3.90;;
31531;SDS011;23787;52.180;5.288;2022-12-07T01:30:26;4.20;;;3.90;;
31531;SDS011;23787;52.180;5.288;2022-12-07T01:35:26;4.30;;;4.00;;
31531;SDS011;23787;52.180;5.288;2022-12-07T01:40:26;4.30;;;4.00;;
31531;SDS011;23787;52.180;5.288;2022-12-07T01:45:37;4.30;;;4.00;;
31531;SDS011;23787;52.180;5.288;2022-12-07T01:50:27;4.00;;;3.70;;
31531;SDS011;23787;52.180;5.288;2022-12-07T02:00:26;4.00;;;3.70;;
31531;SDS011;23787;52.180;5.288;2022-12-07T02:05:26;3.70;;;3.40;;
31531;SDS011;23787;52.180;5.288;2022-12-07T02:10:28;3.70;;;3.40;;
31531;SDS011;23787;52.180;5.288;2022-12-07T02:20:30;3.60;;;3.30;;
31531;SDS011;23787;52.180;5.288;2022-12-07T02:25:39;3.60;;;3.30;;
31531;SDS011;23787;52.180;5.288;2022-12-07T02:40:31;7.00;;;3.80;;
31531;SDS011;23787;52.180;5.288;2022-12-07T02:45:29;7.00;;;3.80;;
31531;SDS011;23787;52.180;5.288;2022-12-07T03:00:26;3.70;;;3.40;;
31531;SDS011;23787;52.180;5.288;2022-12-07T03:10:34;3.80;;;3.50;;
31531;SDS011;23787;52.180;5.288;2022-12-07T03:20:29;3.50;;;3.20;;
31531;SDS011;23787;52.180;5.288;2022-12-07T03:25:27;3.50;;;3.20;;
31531;SDS011;23787;52.180;5.288;2022-12-07T03:30:29;3.50;;;3.20;;
31531;SDS011;23787;52.180;5.288;2022-12-07T03:35:28;3.50;;;3.20;;
31531;SDS011;23787;52.180;5.288;2022-12-07T03:40:31;3.50;;;3.20;;
31531;SDS011;23787;52.180;5.288;2022-12-07T04:05:26;3.40;;;3.10;;
31531;SDS011;23787;52.180;5.288;2022-12-07T04:10:26;3.40;;;3.10;;
31531;SDS011;23787;52.180;5.288;2022-12-07T04:15:26;3.40;;;3.10;;
31531;SDS011;23787;52.180;5.288;2022-12-07T04:35:26;3.60;;;3.30;;
31531;SDS011;23787;52.180;5.288;2022-12-07T04:40:26;3.60;;;3.30;;
31531;SDS011;23787;52.180;5.288;2022-12-07T04:45:26;3.60;;;3.30;;
31531;SDS011;23787;52.180;5.288;2022-12-07T04:50:26;3.40;;;3.10;;
31531;SDS011;23787;52.180;5.288;2022-12-07T04:55:26;3.40;;;3.10;;
31531;SDS011;23787;52.180;5.288;2022-12-07T05:00:26;3.40;;;3.10;;
31531;SDS011;23787;52.180;5.288;2022-12-07T05:05:26;3.70;;;3.40;;
31531;SDS011;23787;52.180;5.288;2022-12-07T05:20:26;4.70;;;4.00;;
31531;SDS011;23787;52.180;5.288;2022-12-07T05:25:26;4.70;;;4.00;;
31531;SDS011;23787;52.180;5.288;2022-12-07T05:30:26;4.70;;;4.00;;
31531;SDS011;23787;52.180;5.288;2022-12-07T05:35:26;3.50;;;3.20;;
31531;SDS011;23787;52.180;5.288;2022-12-07T05:45:26;3.50;;;3.20;;
31531;SDS011;23787;52.180;5.288;2022-12-07T05:50:26;3.70;;;3.40;;
31531;SDS011;23787;52.180;5.288;2022-12-07T06:02:07;unknown;;;unknown;;
31531;SDS011;23787;52.180;5.288;2022-12-07T06:07:06;3.40;;;3.10;;
31531;SDS011;23787;52.180;5.288;2022-12-07T06:12:06;3.40;;;3.10;;
31531;SDS011;23787;52.180;5.288;2022-12-07T06:27:05;3.10;;;2.80;;
31531;SDS011;23787;52.180;5.288;2022-12-07T06:37:05;3.30;;;3.00;;
31531;SDS011;23787;52.180;5.288;2022-12-07T06:47:05;3.30;;;3.00;;
31531;SDS011;23787;52.180;5.288;2022-12-07T06:52:05;3.20;;;2.90;;
31531;SDS011;23787;52.180;5.288;2022-12-07T07:12:05;3.20;;;2.90;;
31531;SDS011;23787;52.180;5.288;2022-12-07T07:17:05;3.20;;;2.90;;
31531;SDS011;23787;52.180;5.288;2022-12-07T07:22:05;3.30;;;3.00;;
31531;SDS011;23787;52.180;5.288;2022-12-07T07:27:05;3.30;;;3.00;;
31531;SDS011;23787;52.180;5.288;2022-12-07T07:42:05;3.30;;;3.00;;
31531;SDS011;23787;52.180;5.288;2022-12-07T07:47:05;3.30;;;3.00;;
31531;SDS011;23787;52.180;5.288;2022-12-07T08:02:05;3.10;;;2.80;;
31531;SDS011;23787;52.180;5.288;2022-12-07T08:12:05;3.20;;;2.90;;
31531;SDS011;23787;52.180;5.288;2022-12-07T08:17:05;3.20;;;2.90;;
31531;SDS011;23787;52.180;5.288;2022-12-07T08:22:05;2.90;;;2.60;;
31531;SDS011;23787;52.180;5.288;2022-12-07T08:27:05;2.90;;;2.60;;
31531;SDS011;23787;52.180;5.288;2022-12-07T08:37:05;3.00;;;2.70;;
31531;SDS011;23787;52.180;5.288;2022-12-07T08:42:05;3.00;;;2.70;;
31531;SDS011;23787;52.180;5.288;2022-12-07T08:47:06;3.00;;;2.70;;
31531;SDS011;23787;52.180;5.288;2022-12-07T08:52:05;3.40;;;3.10;;
31531;SDS011;23787;52.180;5.288;2022-12-07T08:57:06;3.40;;;3.10;;
31531;SDS011;23787;52.180;5.288;2022-12-07T09:02:05;3.40;;;3.10;;
31531;SDS011;23787;52.180;5.288;2022-12-07T09:12:05;3.90;;;3.60;;
31531;SDS011;23787;52.180;5.288;2022-12-07T09:17:06;4.10;;;3.80;;
31531;SDS011;23787;52.180;5.288;2022-12-07T09:22:05;4.10;;;3.80;;
31531;SDS011;23787;52.180;5.288;2022-12-07T09:27:05;4.10;;;3.80;;
31531;SDS011;23787;52.180;5.288;2022-12-07T09:32:05;4.10;;;3.80;;
31531;SDS011;23787;52.180;5.288;2022-12-07T09:37:05;4.10;;;3.80;;
31531;SDS011;23787;52.180;5.288;2022-12-07T09:42:06;4.10;;;3.80;;
31531;SDS011;23787;52.180;5.288;2022-12-07T09:47:05;5.40;;;5.00;;
31531;SDS011;23787;52.180;5.288;2022-12-07T09:52:17;5.40;;;5.00;;
31531;SDS011;23787;52.180;5.288;2022-12-07T09:57:05;5.40;;;5.00;;
31531;SDS011;23787;52.180;5.288;2022-12-07T10:02:21;4.90;;;4.50;;
31531;SDS011;23787;52.180;5.288;2022-12-07T10:07:46;4.90;;;4.50;;
31531;SDS011;23787;52.180;5.288;2022-12-07T10:12:07;4.90;;;4.50;;
31531;SDS011;23787;52.180;5.288;2022-12-07T10:22:12;5.10;;;4.70;;
31531;SDS011;23787;52.180;5.288;2022-12-07T10:27:17;5.10;;;4.70;;
31531;SDS011;23787;52.180;5.288;2022-12-07T10:32:27;5.40;;;5.00;;
31531;SDS011;23787;52.180;5.288;2022-12-07T10:37:14;5.40;;;5.00;;
31531;SDS011;23787;52.180;5.288;2022-12-07T10:42:16;5.40;;;5.00;;
31531;SDS011;23787;52.180;5.288;2022-12-07T10:47:24;5.60;;;5.20;;
31531;SDS011;23787;52.180;5.288;2022-12-07T10:52:10;5.60;;;5.20;;
31531;SDS011;23787;52.180;5.288;2022-12-07T10:57:19;5.60;;;5.20;;
31531;SDS011;23787;52.180;5.288;2022-12-07T11:02:21;5.70;;;5.30;;
31531;SDS011;23787;52.180;5.288;2022-12-07T11:07:10;5.70;;;5.30;;
31531;SDS011;23787;52.180;5.288;2022-12-07T11:12:11;5.70;;;5.30;;
31531;SDS011;23787;52.180;5.288;2022-12-07T11:17:10;5.20;;;4.80;;
31531;SDS011;23787;52.180;5.288;2022-12-07T11:22:09;5.20;;;4.80;;
31531;SDS011;23787;52.180;5.288;2022-12-07T11:27:15;5.20;;;4.80;;
31531;SDS011;23787;52.180;5.288;2022-12-07T11:37:09;6.50;;;6.00;;
31531;SDS011;23787;52.180;5.288;2022-12-07T11:42:12;6.50;;;6.00;;
31531;SDS011;23787;52.180;5.288;2022-12-07T11:47:09;6.30;;;5.80;;
31531;SDS011;23787;52.180;5.288;2022-12-07T11:52:12;6.30;;;5.80;;
31531;SDS011;23787;52.180;5.288;2022-12-07T11:57:17;6.30;;;5.80;;
31531;SDS011;23787;52.180;5.288;2022-12-07T12:02:12;7.50;;;7.00;;
31531;SDS011;23787;52.180;5.288;2022-12-07T12:07:06;7.50;;;7.00;;
31531;SDS011;23787;52.180;5.288;2022-12-07T12:12:16;7.50;;;7.00;;
31531;SDS011;23787;52.180;5.288;2022-12-07T12:17:23;8.20;;;7.60;;
31531;SDS011;23787;52.180;5.288;2022-12-07T12:22:12;8.20;;;7.60;;
31531;SDS011;23787;52.180;5.288;2022-12-07T12:27:08;8.20;;;7.60;;
31531;SDS011;23787;52.180;5.288;2022-12-07T12:32:08;10.30;;;9.60;;
31531;SDS011;23787;52.180;5.288;2022-12-07T12:42:18;10.30;;;9.60;;
31531;SDS011;23787;52.180;5.288;2022-12-07T12:57:09;13.90;;;13.00;;
31531;SDS011;23787;52.180;5.288;2022-12-07T13:02:16;19.50;;;18.30;;
31531;SDS011;23787;52.180;5.288;2022-12-07T13:07:11;19.50;;;18.30;;
31531;SDS011;23787;52.180;5.288;2022-12-07T13:12:13;19.50;;;18.30;;
31531;SDS011;23787;52.180;5.288;2022-12-07T13:17:08;17.40;;;16.30;;
31531;SDS011;23787;52.180;5.288;2022-12-07T13:27:07;17.40;;;16.30;;
31531;SDS011;23787;52.180;5.288;2022-12-07T13:32:19;12.00;;;11.20;;
31531;SDS011;23787;52.180;5.288;2022-12-07T13:37:12;12.00;;;11.20;;
31531;SDS011;23787;52.180;5.288;2022-12-07T13:42:15;12.00;;;11.20;;
31531;SDS011;23787;52.180;5.288;2022-12-07T13:47:14;17.30;;;16.20;;
31531;SDS011;23787;52.180;5.288;2022-12-07T13:52:13;17.30;;;16.20;;
31531;SDS011;23787;52.180;5.288;2022-12-07T13:57:06;17.30;;;16.20;;
31531;SDS011;23787;52.180;5.288;2022-12-07T14:02:19;15.60;;;14.60;;
31531;SDS011;23787;52.180;5.288;2022-12-07T14:07:23;15.60;;;14.60;;
31531;SDS011;23787;52.180;5.288;2022-12-07T14:12:06;15.60;;;14.60;;
31531;SDS011;23787;52.180;5.288;2022-12-07T14:16:29;12.40;;;11.60;;
31531;SDS011;23787;52.180;5.288;2022-12-07T14:17:12;12.40;;;11.60;;
31531;SDS011;23787;52.180;5.288;2022-12-07T14:22:06;12.40;;;11.60;;
31531;SDS011;23787;52.180;5.288;2022-12-07T14:27:17;12.40;;;11.60;;
31531;SDS011;23787;52.180;5.288;2022-12-07T14:37:07;12.40;;;11.60;;
31531;SDS011;23787;52.180;5.288;2022-12-07T14:42:07;12.40;;;11.60;;
31531;SDS011;23787;52.180;5.288;2022-12-07T14:47:08;10.40;;;9.70;;
31531;SDS011;23787;52.180;5.288;2022-12-07T14:52:12;10.40;;;9.70;;
31531;SDS011;23787;52.180;5.288;2022-12-07T14:57:07;10.40;;;9.70;;
31531;SDS011;23787;52.180;5.288;2022-12-07T15:02:07;10.30;;;9.60;;
31531;SDS011;23787;52.180;5.288;2022-12-07T15:07:15;10.30;;;9.60;;
31531;SDS011;23787;52.180;5.288;2022-12-07T15:12:05;10.30;;;9.60;;
31531;SDS011;23787;52.180;5.288;2022-12-07T15:17:05;8.40;;;7.70;;
31531;SDS011;23787;52.180;5.288;2022-12-07T15:22:06;8.40;;;7.70;;
31531;SDS011;23787;52.180;5.288;2022-12-07T15:27:05;8.40;;;7.70;;
31531;SDS011;23787;52.180;5.288;2022-12-07T15:37:06;9.20;;;8.60;;
31531;SDS011;23787;52.180;5.288;2022-12-07T15:42:05;9.20;;;8.60;;
31531;SDS011;23787;52.180;5.288;2022-12-07T15:52:05;6.60;;;6.10;;
31531;SDS011;23787;52.180;5.288;2022-12-07T15:56:53;6.60;;;6.10;;
31531;SDS011;23787;52.180;5.288;2022-12-07T15:57:05;6.60;;;6.10;;
31531;SDS011;23787;52.180;5.288;2022-12-07T16:02:05;6.80;;;6.30;;
31531;SDS011;23787;52.180;5.288;2022-12-07T16:15:27;6.60;;;6.10;;
31531;SDS011;23787;52.180;5.288;2022-12-07T16:30:27;6.80;;;6.30;;
31531;SDS011;23787;52.180;5.288;2022-12-07T16:35:27;6.80;;;6.30;;
31531;SDS011;23787;52.180;5.288;2022-12-07T16:40:27;6.80;;;6.30;;
31531;SDS011;23787;52.180;5.288;2022-12-07T16:45:27;5.30;;;4.90;;
31531;SDS011;23787;52.180;5.288;2022-12-07T16:50:27;5.30;;;4.90;;
31531;SDS011;23787;52.180;5.288;2022-12-07T16:55:27;5.30;;;4.90;;
31531;SDS011;23787;52.180;5.288;2022-12-07T17:05:27;6.20;;;5.70;;
31531;SDS011;23787;52.180;5.288;2022-12-07T17:10:27;6.20;;;5.70;;
31531;SDS011;23787;52.180;5.288;2022-12-07T17:20:27;5.70;;;5.30;;
31531;SDS011;23787;52.180;5.288;2022-12-07T17:30:27;5.50;;;5.10;;
31531;SDS011;23787;52.180;5.288;2022-12-07T17:40:27;5.50;;;5.10;;
31531;SDS011;23787;52.180;5.288;2022-12-07T17:45:27;5.30;;;4.90;;
31531;SDS011;23787;52.180;5.288;2022-12-07T17:50:27;5.30;;;4.90;;
31531;SDS011;23787;52.180;5.288;2022-12-07T17:55:27;5.30;;;4.90;;
31531;SDS011;23787;52.180;5.288;2022-12-07T18:00:27;5.30;;;4.90;;
31531;SDS011;23787;52.180;5.288;2022-12-07T18:05:27;5.30;;;4.90;;
31531;SDS011;23787;52.180;5.288;2022-12-07T18:10:27;5.30;;;4.90;;
31531;SDS011;23787;52.180;5.288;2022-12-07T18:15:27;5.30;;;4.90;;
31531;SDS011;23787;52.180;5.288;2022-12-07T18:20:27;5.30;;;4.90;;
31531;SDS011;23787;52.180;5.288;2022-12-07T18:25:27;5.30;;;4.90;;
31531;SDS011;23787;52.180;5.288;2022-12-07T18:30:27;5.20;;;4.80;;
31531;SDS011;23787;52.180;5.288;2022-12-07T18:35:27;5.20;;;4.80;;
31531;SDS011;23787;52.180;5.288;2022-12-07T18:40:27;5.20;;;4.80;;
31531;SDS011;23787;52.180;5.288;2022-12-07T18:45:27;5.00;;;4.60;;
31531;SDS011;23787;52.180;5.288;2022-12-07T18:50:28;5.00;;;4.60;;
31531;SDS011;23787;52.180;5.288;2022-12-07T19:00:29;5.50;;;5.10;;
31531;SDS011;23787;52.180;5.288;2022-12-07T19:20:27;5.40;;;5.00;;
31531;SDS011;23787;52.180;5.288;2022-12-07T19:25:28;5.40;;;5.00;;
31531;SDS011;23787;52.180;5.288;2022-12-07T19:30:27;5.10;;;4.70;;
31531;SDS011;23787;52.180;5.288;2022-12-07T19:35:27;5.10;;;4.70;;
31531;SDS011;23787;52.180;5.288;2022-12-07T19:55:27;4.60;;;4.20;;
31531;SDS011;23787;52.180;5.288;2022-12-07T20:00:27;5.00;;;4.60;;
31531;SDS011;23787;52.180;5.288;2022-12-07T20:05:27;5.00;;;4.60;;
31531;SDS011;23787;52.180;5.288;2022-12-07T20:10:27;5.00;;;4.60;;
31531;SDS011;23787;52.180;5.288;2022-12-07T20:25:27;5.30;;;4.90;;
31531;SDS011;23787;52.180;5.288;2022-12-07T20:30:27;5.10;;;4.70;;
31531;SDS011;23787;52.180;5.288;2022-12-07T20:40:27;5.10;;;4.70;;
31531;SDS011;23787;52.180;5.288;2022-12-07T20:45:28;5.00;;;4.60;;
31531;SDS011;23787;52.180;5.288;2022-12-07T20:55:28;5.00;;;4.60;;
31531;SDS011;23787;52.180;5.288;2022-12-07T21:00:27;4.50;;;4.10;;
31531;SDS011;23787;52.180;5.288;2022-12-07T21:10:27;4.50;;;4.10;;
31531;SDS011;23787;52.180;5.288;2022-12-07T21:20:27;4.60;;;4.20;;
31531;SDS011;23787;52.180;5.288;2022-12-07T21:25:28;4.60;;;4.20;;
31531;SDS011;23787;52.180;5.288;2022-12-07T21:30:27;4.70;;;4.30;;
31531;SDS011;23787;52.180;5.288;2022-12-07T21:35:27;4.70;;;4.30;;
31531;SDS011;23787;52.180;5.288;2022-12-07T21:40:27;4.70;;;4.30;;
31531;SDS011;23787;52.180;5.288;2022-12-07T21:55:27;5.10;;;4.70;;
31531;SDS011;23787;52.180;5.288;2022-12-07T22:00:28;4.60;;;4.20;;
31531;SDS011;23787;52.180;5.288;2022-12-07T22:10:27;4.60;;;4.20;;
31531;SDS011;23787;52.180;5.288;2022-12-07T22:15:28;4.80;;;4.40;;
31531;SDS011;23787;52.180;5.288;2022-12-07T22:20:27;4.80;;;4.40;;
31531;SDS011;23787;52.180;5.288;2022-12-07T22:25:28;4.80;;;4.40;;
31531;SDS011;23787;52.180;5.288;2022-12-07T22:30:28;5.10;;;4.70;;
31531;SDS011;23787;52.180;5.288;2022-12-07T22:35:27;5.10;;;4.70;;
31531;SDS011;23787;52.180;5.288;2022-12-07T22:40:28;5.10;;;4.70;;
31531;SDS011;23787;52.180;5.288;2022-12-07T22:45:27;4.40;;;4.00;;
31531;SDS011;23787;52.180;5.288;2022-12-07T22:50:27;4.40;;;4.00;;
31531;SDS011;23787;52.180;5.288;2022-12-07T22:55:28;4.40;;;4.00;;
31531;SDS011;23787;52.180;5.288;2022-12-07T23:05:28;4.70;;;4.30;;
31531;SDS011;23787;52.180;5.288;2022-12-07T23:10:28;4.70;;;4.30;;
31531;SDS011;23787;52.180;5.288;2022-12-07T23:15:28;4.70;;;4.30;;
31531;SDS011;23787;52.180;5.288;2022-12-07T23:20:27;4.70;;;4.30;;
31531;SDS011;23787;52.180;5.288;2022-12-07T23:25:28;4.70;;;4.30;;
31531;SDS011;23787;52.180;5.288;2022-12-07T23:30:27;4.70;;;4.30;;
31531;SDS011;23787;52.180;5.288;2022-12-07T23:35:27;4.70;;;4.30;;
31531;SDS011;23787;52.180;5.288;2022-12-07T23:40:28;4.70;;;4.30;;
31531;SDS011;23787;52.180;5.288;2022-12-07T23:45:28;4.60;;;4.20;;
31531;SDS011;23787;52.180;5.288;2022-12-07T23:50:27;4.60;;;4.20;;
